Time;durP1;ratioP1;P1;durP2;ratioP2;P2;SDS_P1;SDS_P2;PMS_P1;PMS_P2;Temp;Humidity;BMP_temperature;BMP_pressure;BME280_temperature;BME280_humidity;BME280_pressure;Samples;Min_cycle;Max_cycle;Signal;HPM_P1;HPM_P2
2020/12/28 00:01:45;;;;;;;28.50;14.98;;;;;;;-0.51;81.38;99587.43;1743201;81;21174;-64
2020/12/28 00:04:13;;;;;;;26.00;13.32;;;;;;;-0.51;81.52;99596.30;1720316;81;21611;-63
2020/12/28 00:06:47;;;;;;;24.20;13.38;;;;;;;-0.49;81.65;99586.23;1715574;82;21139;-64
2020/12/28 00:09:16;;;;;;;28.05;14.07;;;;;;;-0.47;81.55;99547.93;1720285;82;21237;-63
2020/12/28 00:11:44;;;;;;;26.68;13.58;;;;;;;-0.43;81.46;99568.91;1731734;81;21620;-64
2020/12/28 00:14:12;;;;;;;26.95;14.05;;;;;;;-0.40;81.06;99551.74;1713582;83;21178;-64
2020/12/28 00:16:40;;;;;;;26.25;14.35;;;;;;;-0.41;80.62;99551.23;1686049;84;21199;-64
2020/12/28 00:19:08;;;;;;;25.72;12.78;;;;;;;-0.37;80.70;99543.06;1700984;83;21117;-64
2020/12/28 00:21:35;;;;;;;28.10;14.30;;;;;;;-0.34;80.47;99553.39;1726330;82;21127;-64
2020/12/28 00:24:04;;;;;;;28.85;14.90;;;;;;;-0.35;80.08;99553.78;1709383;82;21245;-64
2020/12/28 00:26:42;;;;;;;25.88;12.63;;;;;;;-0.34;80.08;99516.62;1729711;81;21187;-65
2020/12/28 00:29:13;;;;;;;23.95;10.93;;;;;;;-0.32;79.56;99556.91;1720202;82;21316;-64
2020/12/28 00:31:43;;;;;;;26.37;14.65;;;;;;;-0.31;79.47;99556.98;1710230;82;21213;-64
2020/12/28 00:34:11;;;;;;;21.20;10.63;;;;;;;-0.34;79.39;99562.27;1710071;82;21347;-64
2020/12/28 00:36:40;;;;;;;20.12;10.53;;;;;;;-0.35;79.16;99546.17;1701977;82;21184;-63
2020/12/28 00:39:08;;;;;;;20.57;11.33;;;;;;;-0.35;79.15;99538.97;1713696;82;21217;-64
2020/12/28 00:41:36;;;;;;;23.02;10.95;;;;;;;-0.36;78.84;99539.33;1725745;81;21195;-63
2020/12/28 00:44:03;;;;;;;21.07;10.23;;;;;;;-0.34;78.79;99525.09;1695405;84;21252;-64
2020/12/28 00:46:31;;;;;;;18.15;10.65;;;;;;;-0.32;78.68;99507.05;1668333;83;21195;-63
2020/12/28 00:48:59;;;;;;;17.65;9.10;;;;;;;-0.29;78.30;99530.06;1661443;85;21378;-63
2020/12/28 00:51:27;;;;;;;21.15;11.30;;;;;;;-0.26;78.27;99542.94;1649096;85;21245;-63
2020/12/28 00:53:55;;;;;;;25.15;11.08;;;;;;;-0.25;78.09;99496.92;1668827;83;21349;-64
2020/12/28 00:56:24;;;;;;;18.90;10.15;;;;;;;-0.23;77.14;99505.11;1680537;85;21345;-64
2020/12/28 00:58:51;;;;;;;20.25;10.32;;;;;;;-0.25;76.76;99530.76;1718613;80;21380;-64
2020/12/28 01:01:20;;;;;;;20.02;12.05;;;;;;;-0.21;76.58;99497.58;1725760;80;21317;-63
2020/12/28 01:03:48;;;;;;;24.98;12.85;;;;;;;-0.15;76.46;99510.66;1724125;80;21316;-64
2020/12/28 01:06:15;;;;;;;22.93;12.45;;;;;;;-0.14;76.36;99505.18;1716294;82;21724;-63
2020/12/28 01:08:44;;;;;;;24.50;12.85;;;;;;;-0.14;76.16;99507.32;1720105;82;21609;-63
2020/12/28 01:11:16;;;;;;;21.80;10.50;;;;;;;-0.11;76.27;99504.09;1723639;80;21174;-62
2020/12/28 01:13:44;;;;;;;23.65;11.70;;;;;;;-0.08;76.29;99510.63;1716373;81;21178;-64
2020/12/28 01:16:12;;;;;;;20.62;12.00;;;;;;;-0.14;76.33;99498.84;1720436;81;21181;-63
2020/12/28 01:18:42;;;;;;;23.95;11.38;;;;;;;-0.15;76.25;99489.09;1712436;82;21336;-63
2020/12/28 01:21:21;;;;;;;24.07;12.28;;;;;;;-0.18;76.53;99480.00;1733867;82;21388;-63
2020/12/28 01:23:50;;;;;;;19.75;10.50;;;;;;;-0.22;76.91;99485.29;1730336;82;21178;-64
2020/12/28 01:26:19;;;;;;;26.75;11.85;;;;;;;-0.24;77.21;99452.61;1711473;81;21202;-64
2020/12/28 01:28:49;;;;;;;23.60;11.95;;;;;;;-0.23;77.41;99481.02;1726584;82;21292;-63
2020/12/28 01:31:18;;;;;;;19.57;11.05;;;;;;;-0.26;77.46;99450.36;1727850;81;21186;-63
2020/12/28 01:33:59;;;;;;;24.18;13.00;;;;;;;-0.23;77.26;99464.89;1733257;81;21540;-63
2020/12/28 01:36:29;;;;;;;26.12;13.65;;;;;;;-0.23;77.58;99472.50;1710866;82;21864;-63
2020/12/28 01:38:57;;;;;;;20.00;10.95;;;;;;;-0.23;77.65;99436.63;1700249;81;21224;-62
2020/12/28 01:41:25;;;;;;;31.10;14.28;;;;;;;-0.23;77.72;99437.89;1728813;81;21309;-63
2020/12/28 01:43:54;;;;;;;20.20;11.70;;;;;;;-0.24;77.95;99460.22;1742759;82;21340;-63
2020/12/28 01:46:24;;;;;;;27.85;12.18;;;;;;;-0.23;78.16;99440.80;1708181;82;21335;-63
2020/12/28 01:48:53;;;;;;;26.35;13.05;;;;;;;-0.23;78.01;99413.80;1722499;81;21321;-63
2020/12/28 01:51:23;;;;;;;24.40;11.12;;;;;;;-0.19;77.84;99421.59;1721076;82;21316;-63
2020/12/28 01:53:52;;;;;;;21.95;9.95;;;;;;;-0.16;77.95;99455.61;1716168;82;21177;-64
2020/12/28 01:56:21;;;;;;;20.90;11.25;;;;;;;-0.15;77.68;99455.22;1739974;82;21184;-64
2020/12/28 01:58:51;;;;;;;26.10;10.53;;;;;;;-0.18;77.59;99432.20;1731615;82;21746;-65
2020/12/28 02:01:23;;;;;;;20.52;10.50;;;;;;;-0.17;77.77;99426.38;1689775;83;21170;-64
2020/12/28 02:03:51;;;;;;;23.50;11.83;;;;;;;-0.16;77.66;99420.10;1681814;83;21730;-65
2020/12/28 02:06:21;;;;;;;20.08;10.23;;;;;;;-0.16;77.54;99402.75;1713289;81;21406;-64
2020/12/28 02:08:49;;;;;;;22.67;12.47;;;;;;;-0.17;77.43;99412.42;1721810;82;21325;-64
2020/12/28 02:11:18;;;;;;;28.42;12.55;;;;;;;-0.16;77.71;99421.37;1714957;81;21198;-63
2020/12/28 02:13:46;;;;;;;25.52;12.45;;;;;;;-0.17;77.81;99417.49;1702914;83;21328;-64
2020/12/28 02:16:28;;;;;;;27.50;12.70;;;;;;;-0.14;77.77;99430.36;1683783;83;21311;-62
2020/12/28 02:19:00;;;;;;;28.98;11.08;;;;;;;-0.14;77.60;99418.94;1697964;82;21174;-64
2020/12/28 02:21:30;;;;;;;27.35;14.30;;;;;;;-0.15;77.65;99419.70;1651211;84;21359;-63
2020/12/28 02:23:59;;;;;;;25.97;12.53;;;;;;;-0.17;77.85;99412.42;1646367;85;21285;-63
2020/12/28 02:26:26;;;;;;;34.10;15.70;;;;;;;-0.16;77.69;99409.09;1672748;83;21188;-63
2020/12/28 02:28:54;;;;;;;33.20;14.30;;;;;;;-0.17;77.70;99412.02;1680206;84;21185;-65
2020/12/28 02:31:22;;;;;;;29.98;13.83;;;;;;;-0.18;77.91;99428.41;1707559;82;21318;-62
2020/12/28 02:33:54;;;;;;;33.73;14.53;;;;;;;-0.18;77.93;99403.91;1690953;84;21590;-63
2020/12/28 02:36:24;;;;;;;29.02;13.45;;;;;;;-0.18;77.99;99413.19;1677373;84;21310;-63
2020/12/28 02:38:52;;;;;;;28.75;13.43;;;;;;;-0.16;77.98;99411.63;1689877;81;21180;-64
2020/12/28 02:41:22;;;;;;;28.00;12.28;;;;;;;-0.14;78.02;99407.52;1700628;82;21233;-63
2020/12/28 02:44:08;;;;;;;30.72;13.62;;;;;;;-0.15;77.99;99412.09;1710760;82;21142;-63
2020/12/28 02:46:55;;;;;;;26.95;13.25;;;;;;;-0.15;78.15;99395.24;1723089;81;21573;-62
2020/12/28 02:49:41;;;;;;;26.50;13.22;;;;;;;-0.16;78.25;99406.15;1723541;81;21135;-63
2020/12/28 02:52:27;;;;;;;26.15;12.47;;;;;;;-0.16;78.39;99409.09;1718504;82;21161;-63
2020/12/28 02:55:14;;;;;;;23.18;12.90;;;;;;;-0.16;78.40;99421.77;1677857;84;21173;-65
2020/12/28 02:58:00;;;;;;;30.52;12.90;;;;;;;-0.17;78.46;99399.73;1690452;83;21359;-63
2020/12/28 03:00:48;;;;;;;32.63;13.13;;;;;;;-0.20;78.58;99400.43;1714574;82;21166;-65
2020/12/28 03:03:35;;;;;;;24.57;13.10;;;;;;;-0.21;78.66;99393.58;1705422;83;21615;-64
2020/12/28 03:06:21;;;;;;;28.62;12.25;;;;;;;-0.19;78.83;99381.01;1731982;82;21147;-63
2020/12/28 03:09:08;;;;;;;25.68;11.40;;;;;;;-0.18;78.98;99382.34;1714382;82;21139;-63
2020/12/28 03:11:54;;;;;;;24.47;12.03;;;;;;;-0.16;79.24;99386.26;1727924;81;21589;-62
2020/12/28 03:14:41;;;;;;;24.77;12.47;;;;;;;-0.20;79.30;99375.06;1720906;81;21145;-64
2020/12/28 03:17:26;;;;;;;28.50;12.50;;;;;;;-0.21;79.50;99378.37;1748366;82;21149;-63
2020/12/28 03:20:13;;;;;;;23.77;10.93;;;;;;;-0.22;79.56;99395.25;1723114;81;21179;-63
2020/12/28 03:22:51;;;;;;;24.32;12.15;;;;;;;-0.22;79.47;99390.18;1686076;82;21264;-63
2020/12/28 03:25:38;;;;;;;20.52;10.10;;;;;;;-0.22;79.73;99407.94;1732779;81;21220;-63
2020/12/28 03:28:24;;;;;;;20.65;12.15;;;;;;;-0.24;79.96;99379.06;1709175;82;21311;-63
2020/12/28 03:31:10;;;;;;;21.02;11.55;;;;;;;-0.27;79.95;99376.34;1708733;82;21245;-64
2020/12/28 03:33:56;;;;;;;23.25;11.12;;;;;;;-0.29;80.35;99372.84;1716786;80;21241;-63
2020/12/28 03:36:38;;;;;;;19.67;10.75;;;;;;;-0.28;80.44;99358.48;1674350;82;21140;-63
2020/12/28 03:39:25;;;;;;;24.07;11.45;;;;;;;-0.31;80.50;99387.48;1731087;82;21175;-64
2020/12/28 03:42:04;;;;;;;23.57;13.40;;;;;;;-0.28;80.56;99397.80;1617782;86;21215;-63
2020/12/28 03:44:51;;;;;;;22.80;11.20;;;;;;;-0.30;80.76;99381.23;1716561;81;21188;-63
2020/12/28 03:47:37;;;;;;;28.47;14.43;;;;;;;-0.31;80.80;99379.47;1720125;82;21640;-63
2020/12/28 03:50:23;;;;;;;29.55;14.43;;;;;;;-0.34;81.17;99366.61;1721474;82;21138;-63
2020/12/28 03:53:09;;;;;;;26.90;11.00;;;;;;;-0.34;81.05;99355.20;1715782;83;21158;-63
2020/12/28 03:55:45;;;;;;;27.00;13.18;;;;;;;-0.34;81.22;99361.54;1659224;83;21735;-60
2020/12/28 03:58:31;;;;;;;23.45;12.65;;;;;;;-0.35;81.29;99343.72;1646616;85;21186;-63
2020/12/28 04:01:17;;;;;;;22.55;12.88;;;;;;;-0.35;81.25;99352.20;1647538;85;21198;-64
2020/12/28 04:04:03;;;;;;;27.00;13.18;;;;;;;-0.36;81.39;99347.89;1678302;84;21129;-63
2020/12/28 04:06:49;;;;;;;26.80;13.83;;;;;;;-0.36;81.48;99331.80;1684881;83;21162;-63
2020/12/28 04:09:36;;;;;;;28.07;13.75;;;;;;;-0.36;81.41;99344.08;1669756;83;21316;-69
2020/12/28 04:12:08;;;;;;;27.67;13.20;;;;;;;-0.36;81.51;99342.81;1721435;82;21166;-64
2020/12/28 04:14:36;;;;;;;29.02;13.03;;;;;;;-0.40;81.48;99364.98;1729164;82;21324;-64
2020/12/28 04:17:04;;;;;;;26.82;12.88;;;;;;;-0.42;81.55;99346.27;1728637;82;21169;-63
2020/12/28 04:19:32;;;;;;;28.60;14.23;;;;;;;-0.44;81.68;99346.16;1695399;82;21174;-63
2020/12/28 04:22:00;;;;;;;29.42;14.20;;;;;;;-0.45;81.79;99334.68;1727254;81;21126;-64
2020/12/28 04:24:27;;;;;;;27.75;12.63;;;;;;;-0.44;81.77;99325.01;1710150;81;21187;-63
2020/12/28 04:26:55;;;;;;;38.02;15.48;;;;;;;-0.44;81.71;99340.22;1739224;82;21170;-64
2020/12/28 04:29:23;;;;;;;29.72;13.58;;;;;;;-0.42;81.69;99332.32;1717424;82;21710;-61
2020/12/28 04:31:50;;;;;;;33.28;14.68;;;;;;;-0.40;81.72;99319.35;1726181;82;21139;-63
2020/12/28 04:34:18;;;;;;;28.15;14.85;;;;;;;-0.40;81.96;99324.42;1715866;82;21610;-63
2020/12/28 04:36:46;;;;;;;30.45;14.60;;;;;;;-0.38;82.12;99335.90;1706019;81;21309;-63
2020/12/28 04:39:14;;;;;;;28.90;13.60;;;;;;;-0.42;82.29;99303.16;1695391;83;21265;-64
2020/12/28 04:41:42;;;;;;;31.48;13.18;;;;;;;-0.43;82.56;99301.42;1712462;83;21182;-62
2020/12/28 04:44:09;;;;;;;28.83;13.93;;;;;;;-0.43;82.72;99302.69;1716002;83;21320;-64
2020/12/28 04:46:38;;;;;;;25.08;12.28;;;;;;;-0.45;82.66;99286.51;1660760;85;21158;-65
2020/12/28 04:49:05;;;;;;;26.42;13.03;;;;;;;-0.46;83.11;99278.41;1672193;83;21600;-61
2020/12/28 04:51:34;;;;;;;28.90;13.83;;;;;;;-0.47;83.20;99262.72;1686090;84;21170;-62
2020/12/28 04:54:01;;;;;;;25.02;13.93;;;;;;;-0.46;83.21;99274.59;1670306;85;21174;-63
2020/12/28 04:56:29;;;;;;;24.15;12.93;;;;;;;-0.42;82.87;99289.22;1660413;85;21192;-64
2020/12/28 04:58:57;;;;;;;27.00;13.85;;;;;;;-0.37;82.64;99285.30;1656634;83;21387;-63
2020/12/28 05:01:24;;;;;;;34.55;13.78;;;;;;;-0.33;83.02;99270.76;1692722;84;21175;-64
2020/12/28 05:03:54;;;;;;;27.02;15.10;;;;;;;-0.33;82.61;99279.63;1702339;83;21181;-63
2020/12/28 05:06:22;;;;;;;28.95;12.82;;;;;;;-0.30;82.04;99272.20;1693597;82;21206;-64
2020/12/28 05:08:51;;;;;;;23.52;12.75;;;;;;;-0.26;81.69;99280.45;1693712;82;21180;-63
2020/12/28 05:11:19;;;;;;;21.48;10.85;;;;;;;-0.23;81.38;99287.36;1737622;82;21174;-64
2020/12/28 05:13:48;;;;;;;26.62;13.65;;;;;;;-0.22;81.13;99274.78;1728696;82;21297;-63
2020/12/28 05:16:18;;;;;;;26.15;12.60;;;;;;;-0.17;80.72;99274.19;1678382;82;22495;-63
2020/12/28 05:18:52;;;;;;;27.02;13.80;;;;;;;-0.14;80.43;99266.75;1719498;82;21174;-64
2020/12/28 05:21:27;;;;;;;27.10;14.20;;;;;;;-0.13;80.22;99269.36;1725546;81;21162;-64
2020/12/28 05:23:55;;;;;;;24.70;13.13;;;;;;;-0.08;80.13;99278.11;1725203;81;21215;-64
2020/12/28 05:26:23;;;;;;;24.20;12.78;;;;;;;-0.04;79.53;99283.85;1737971;80;21234;-64
2020/12/28 05:28:54;;;;;;;28.52;13.58;;;;;;;-0.03;79.37;99256.81;1714589;82;21174;-65
2020/12/28 05:31:22;;;;;;;22.73;11.70;;;;;;;-0.03;79.30;99291.06;1713284;82;21178;-63
2020/12/28 05:33:53;;;;;;;22.27;12.33;;;;;;;-0.02;78.84;99291.56;1724889;82;21312;-63
2020/12/28 05:36:22;;;;;;;26.27;12.33;;;;;;;-0.01;78.99;99284.02;1702958;82;21633;-63
2020/12/28 05:38:53;;;;;;;27.10;13.32;;;;;;;0.00;78.92;99290.00;1720745;82;21626;-63
2020/12/28 05:41:28;;;;;;;28.62;13.68;;;;;;;0.01;79.04;99281.59;1710227;82;21154;-63
2020/12/28 05:43:58;;;;;;;27.55;12.80;;;;;;;0.03;79.05;99288.90;1721679;82;21233;-65
2020/12/28 05:46:26;;;;;;;26.93;12.07;;;;;;;0.03;79.31;99286.77;1722532;81;21273;-63
2020/12/28 05:48:55;;;;;;;27.65;14.03;;;;;;;0.01;79.34;99286.66;1712362;83;21212;-63
2020/12/28 05:51:23;;;;;;;24.20;13.88;;;;;;;0.01;79.43;99301.88;1712588;83;21181;-62
2020/12/28 05:53:52;;;;;;;28.47;15.13;;;;;;;0.00;79.29;99307.75;1694804;83;21205;-63
2020/12/28 05:56:25;;;;;;;30.02;13.78;;;;;;;0.01;79.63;99282.86;1705917;82;21166;-63
2020/12/28 05:58:56;;;;;;;25.70;11.68;;;;;;;0.01;79.48;99281.59;1698806;82;21170;-64
2020/12/28 06:01:27;;;;;;;37.03;16.12;;;;;;;0.00;79.49;99310.30;1713150;82;21161;-64
2020/12/28 06:04:00;;;;;;;28.27;13.78;;;;;;;-0.07;79.85;99296.77;1708654;82;21162;-64
2020/12/28 06:06:28;;;;;;;24.47;12.75;;;;;;;-0.08;80.11;99300.06;1732300;81;21183;-64
2020/12/28 06:08:56;;;;;;;28.62;14.30;;;;;;;-0.07;80.24;99305.64;1713982;82;21229;-64
2020/12/28 06:11:25;;;;;;;27.27;12.75;;;;;;;-0.07;79.79;99296.37;1725006;82;21177;-64
2020/12/28 06:13:54;;;;;;;33.50;15.38;;;;;;;-0.07;80.01;99285.34;1740878;82;21324;-64
2020/12/28 06:16:23;;;;;;;32.55;15.75;;;;;;;-0.07;80.00;99300.57;1739039;82;21138;-64
2020/12/28 06:18:56;;;;;;;27.90;13.72;;;;;;;-0.09;79.84;99289.05;1711028;81;21553;-63
2020/12/28 06:21:29;;;;;;;26.97;12.75;;;;;;;-0.08;79.83;99317.83;1723367;81;21148;-63
2020/12/28 06:23:57;;;;;;;30.20;13.78;;;;;;;-0.11;79.76;99278.34;1683661;83;21245;-63
2020/12/28 06:26:25;;;;;;;29.87;14.25;;;;;;;-0.10;79.95;99279.70;1706640;83;21155;-63
2020/12/28 06:29:10;;;;;;;24.60;14.00;;;;;;;-0.10;80.03;99282.61;1680216;82;21195;-64
2020/12/28 06:31:38;;;;;;;29.50;14.40;;;;;;;-0.12;80.04;99298.16;1703286;82;21185;-65
2020/12/28 06:34:05;;;;;;;24.15;14.40;;;;;;;-0.12;80.25;99273.66;1732815;80;21209;-64
2020/12/28 06:36:33;;;;;;;25.85;13.95;;;;;;;-0.10;80.09;99282.24;1716204;82;21195;-64
2020/12/28 06:39:01;;;;;;;29.57;14.40;;;;;;;-0.09;79.69;99276.37;1719183;82;21167;-64
2020/12/28 06:41:31;;;;;;;26.05;13.00;;;;;;;-0.07;79.77;99251.11;1720382;82;21115;-62
2020/12/28 06:44:02;;;;;;;30.97;14.68;;;;;;;-0.08;79.92;99281.91;1718217;82;21177;-63
2020/12/28 06:46:31;;;;;;;30.52;14.07;;;;;;;-0.05;80.02;99245.70;1722988;82;21260;-63
2020/12/28 06:48:59;;;;;;;30.30;15.50;;;;;;;-0.08;80.09;99260.75;1709545;82;21295;-65
2020/12/28 06:51:27;;;;;;;28.80;14.73;;;;;;;-0.10;80.30;99254.70;1698379;82;21175;-63
2020/12/28 06:53:56;;;;;;;33.95;16.35;;;;;;;-0.10;80.46;99258.51;1717486;82;21207;-62
2020/12/28 06:56:26;;;;;;;31.80;15.85;;;;;;;-0.08;80.37;99251.88;1706373;81;21182;-63
2020/12/28 06:58:59;;;;;;;33.18;12.75;;;;;;;-0.08;80.55;99260.34;1709338;81;21202;-63
2020/12/28 07:01:27;;;;;;;32.95;17.82;;;;;;;-0.07;80.54;99238.42;1718886;81;21168;-63
2020/12/28 07:03:56;;;;;;;30.48;15.23;;;;;;;-0.09;80.86;99250.13;1717779;82;21182;-66
2020/12/28 07:06:24;;;;;;;29.72;14.98;;;;;;;-0.13;80.99;99245.66;1713883;82;21312;-62
2020/12/28 07:08:56;;;;;;;29.02;14.18;;;;;;;-0.14;80.99;99249.00;1728727;82;21146;-62
2020/12/28 07:11:23;;;;;;;26.75;13.30;;;;;;;-0.12;81.39;99230.94;1686588;82;21142;-62
2020/12/28 07:13:53;;;;;;;31.42;15.85;;;;;;;-0.13;81.44;99231.70;1720385;82;21169;-63
2020/12/28 07:16:21;;;;;;;35.80;15.03;;;;;;;-0.11;81.54;99239.89;1718724;81;21606;-64
2020/12/28 07:18:48;;;;;;;27.40;14.13;;;;;;;-0.07;81.58;99227.00;1712926;82;21260;-63
2020/12/28 07:21:17;;;;;;;27.60;14.30;;;;;;;-0.07;81.69;99224.47;1706971;82;21753;-64
2020/12/28 07:23:44;;;;;;;28.95;12.75;;;;;;;-0.05;81.72;99227.57;1708554;82;21183;-62
2020/12/28 07:26:12;;;;;;;29.63;15.78;;;;;;;-0.05;81.72;99230.48;1705626;83;21216;-62
2020/12/28 07:28:46;;;;;;;29.42;13.78;;;;;;;-0.05;81.81;99217.42;1710236;81;21198;-62
2020/12/28 07:31:14;;;;;;;31.20;14.10;;;;;;;-0.04;81.69;99224.64;1707235;81;21234;-62
2020/12/28 07:33:49;;;;;;;29.75;14.87;;;;;;;-0.06;81.96;99220.73;1708290;81;21131;-63
2020/12/28 07:36:20;;;;;;;34.80;17.40;;;;;;;-0.06;82.13;99223.67;1711365;82;21085;-63
2020/12/28 07:38:49;;;;;;;29.50;16.45;;;;;;;-0.03;82.14;99240.33;1700962;82;21111;-63
2020/12/28 07:41:21;;;;;;;28.00;14.63;;;;;;;-0.02;82.19;99220.12;1726069;83;21116;-63
2020/12/28 07:43:55;;;;;;;35.85;17.60;;;;;;;-0.01;82.15;99233.69;1712228;82;21124;-62
2020/12/28 07:46:40;;;;;;;34.65;17.15;;;;;;;-0.02;82.16;99213.79;1713324;82;21246;-63
2020/12/28 07:49:21;;;;;;;33.18;16.67;;;;;;;0.01;82.30;99205.47;1705355;81;21120;-63
2020/12/28 07:52:13;;;;;;;32.42;15.10;;;;;;;0.05;82.22;99227.70;1719950;82;21083;-63
2020/12/28 07:54:58;;;;;;;33.95;16.82;;;;;;;0.11;82.19;99207.73;1853480;77;22156;-62
2020/12/28 07:57:51;;;;;;;34.13;16.82;;;;;;;0.08;82.10;99196.16;1825819;78;21137;-63
2020/12/28 08:00:22;;;;;;;35.45;17.10;;;;;;;0.11;82.06;99197.59;1826051;78;21157;-62
2020/12/28 08:02:58;;;;;;;34.73;16.30;;;;;;;0.09;82.16;99208.44;1758872;81;21130;-62
2020/12/28 08:05:27;;;;;;;32.63;16.70;;;;;;;0.09;82.18;99230.87;1758899;81;21130;-63
2020/12/28 08:07:55;;;;;;;34.03;17.37;;;;;;;0.10;82.20;99225.41;1777107;81;21150;-62
2020/12/28 08:10:23;;;;;;;41.83;20.75;;;;;;;0.12;82.01;99217.09;1758728;81;21297;-63
2020/12/28 08:12:59;;;;;;;31.95;17.02;;;;;;;0.12;82.19;99213.28;1758707;81;21167;-62
2020/12/28 08:15:29;;;;;;;34.92;18.45;;;;;;;0.12;82.21;99242.46;1776958;81;21277;-63
2020/12/28 08:18:10;;;;;;;36.70;19.25;;;;;;;0.12;82.31;99202.27;1758722;81;21171;-62
2020/12/28 08:20:39;;;;;;;40.78;18.92;;;;;;;0.11;82.47;99209.01;1759020;81;21544;-62
2020/12/28 08:23:07;;;;;;;36.55;19.02;;;;;;;0.14;82.13;99201.56;1776896;80;21151;-63
2020/12/28 08:25:38;;;;;;;33.90;16.87;;;;;;;0.17;82.08;99230.91;1758938;81;21126;-63
2020/12/28 08:28:06;;;;;;;39.98;18.90;;;;;;;0.17;81.90;99195.38;1759175;81;21162;-62
2020/12/28 08:30:34;;;;;;;34.23;17.77;;;;;;;0.25;81.76;99226.66;1776846;80;21549;-62
2020/12/28 08:33:02;;;;;;;38.48;19.52;;;;;;;0.19;81.66;99204.36;1758754;81;21170;-63
2020/12/28 08:35:33;;;;;;;33.98;18.82;;;;;;;0.19;81.76;99208.17;1758681;81;21161;-63
2020/12/28 08:38:00;;;;;;;35.83;19.07;;;;;;;0.18;81.70;99190.80;1777059;80;21138;-63
2020/12/28 08:40:28;;;;;;;31.82;16.35;;;;;;;0.17;81.76;99179.28;1758681;81;21142;-62
2020/12/28 08:42:57;;;;;;;39.18;18.48;;;;;;;0.13;81.97;99180.80;1759054;81;21284;-64
2020/12/28 08:45:27;;;;;;;35.80;18.55;;;;;;;0.12;82.06;99175.22;1776877;80;21146;-62
2020/12/28 08:48:00;;;;;;;32.13;17.77;;;;;;;0.13;82.13;99190.94;1758915;81;21308;-63
2020/12/28 08:50:34;;;;;;;29.87;17.07;;;;;;;0.14;82.09;99196.48;1758907;81;21146;-62
2020/12/28 08:53:02;;;;;;;35.68;17.45;;;;;;;0.12;82.15;99166.73;1775275;81;21525;-62
2020/12/28 08:55:30;;;;;;;31.02;17.42;;;;;;;0.13;82.23;99147.80;1750753;82;21316;-62
2020/12/28 08:57:59;;;;;;;28.60;16.00;;;;;;;0.15;82.20;99158.92;1820291;79;21289;-63
2020/12/28 09:00:28;;;;;;;31.40;15.40;;;;;;;0.20;82.09;99161.69;1750727;82;21159;-62
2020/12/28 09:02:58;;;;;;;30.97;16.45;;;;;;;0.27;81.93;99155.29;1820686;79;21264;-62
2020/12/28 09:05:30;;;;;;;33.42;15.95;;;;;;;0.31;81.88;99145.80;1819937;79;21146;-62
2020/12/28 09:07:58;;;;;;;33.05;15.50;;;;;;;0.35;81.66;99134.59;1820097;79;21150;-62
2020/12/28 09:10:25;;;;;;;36.58;15.20;;;;;;;0.37;81.66;99138.50;1750356;82;21135;-62
2020/12/28 09:12:54;;;;;;;31.05;15.32;;;;;;;0.34;81.74;99117.63;1819714;79;21115;-62
2020/12/28 09:15:22;;;;;;;29.85;15.68;;;;;;;0.31;81.91;99123.82;1750210;82;21292;-62
2020/12/28 09:17:50;;;;;;;35.03;15.32;;;;;;;0.34;81.92;99096.45;1819786;79;21241;-62
2020/12/28 09:20:17;;;;;;;34.65;16.32;;;;;;;0.34;81.94;99082.50;1819804;79;21142;-62
2020/12/28 09:22:45;;;;;;;39.95;17.52;;;;;;;0.33;82.04;99085.81;1819820;79;21261;-62
2020/12/28 09:25:13;;;;;;;27.00;13.95;;;;;;;0.32;82.18;99103.11;1819731;79;21144;-62
2020/12/28 09:27:40;;;;;;;29.60;14.78;;;;;;;0.31;82.32;99095.90;1819812;79;21145;-62
2020/12/28 09:30:08;;;;;;;33.25;16.50;;;;;;;0.34;82.40;99095.19;1819665;79;21177;-62
2020/12/28 09:32:39;;;;;;;32.73;17.02;;;;;;;0.35;82.55;99100.73;1819840;79;21171;-62
2020/12/28 09:35:07;;;;;;;34.05;17.17;;;;;;;0.35;82.39;99094.38;1819853;79;21155;-62
2020/12/28 09:37:36;;;;;;;33.92;16.23;;;;;;;0.34;82.52;99118.90;1819972;79;21146;-62
2020/12/28 09:40:06;;;;;;;34.80;16.90;;;;;;;0.37;82.46;99101.69;1819665;79;21154;-62
2020/12/28 09:42:34;;;;;;;31.10;16.07;;;;;;;0.39;82.50;99079.80;1819672;79;21232;-62
2020/12/28 09:45:02;;;;;;;32.83;16.77;;;;;;;0.38;82.63;99099.25;1750197;82;21167;-62
2020/12/28 09:47:29;;;;;;;33.85;16.20;;;;;;;0.42;82.84;99110.42;1820066;79;21135;-62
2020/12/28 09:49:57;;;;;;;31.23;14.40;;;;;;;0.45;82.75;99097.89;1819776;79;21118;-62
2020/12/28 09:52:26;;;;;;;30.75;15.08;;;;;;;0.46;82.65;99085.69;1750363;82;21170;-62
2020/12/28 09:54:54;;;;;;;32.13;16.77;;;;;;;0.46;82.70;99082.25;1813203;79;21221;-62
2020/12/28 09:57:21;;;;;;;31.80;15.75;;;;;;;0.46;82.70;99073.00;1742479;82;21151;-62
2020/12/28 09:59:49;;;;;;;32.75;16.30;;;;;;;0.48;82.64;99090.42;1811276;79;21150;-62
2020/12/28 10:02:17;;;;;;;30.25;15.50;;;;;;;0.50;82.57;99082.50;1742334;82;21593;-62
2020/12/28 10:04:45;;;;;;;31.17;15.63;;;;;;;0.50;82.65;99058.38;1811112;79;21268;-62
2020/12/28 10:07:12;;;;;;;29.85;15.23;;;;;;;0.48;82.81;99054.02;1811472;79;21154;-62
2020/12/28 10:09:41;;;;;;;27.80;14.80;;;;;;;0.48;82.90;99043.86;1742327;82;21127;-61
2020/12/28 10:12:09;;;;;;;34.13;16.87;;;;;;;0.47;83.10;99060.77;1811520;79;21548;-62
2020/12/28 10:14:36;;;;;;;23.07;12.68;;;;;;;0.45;83.28;99053.86;1742166;82;21159;-62
2020/12/28 10:17:05;;;;;;;27.87;15.83;;;;;;;0.42;83.53;99052.03;1811440;79;21143;-62
2020/12/28 10:19:34;;;;;;;27.37;14.73;;;;;;;0.42;85.28;99059.25;1742244;82;21150;-62
2020/12/28 10:22:01;;;;;;;29.92;15.20;;;;;;;0.36;85.91;99051.73;1811343;79;21146;-62
2020/12/28 10:24:30;;;;;;;29.05;16.17;;;;;;;0.29;85.98;99022.60;1811277;79;21127;-62
2020/12/28 10:26:57;;;;;;;30.12;13.50;;;;;;;0.25;86.43;99024.89;1742133;82;21297;-62
2020/12/28 10:29:25;;;;;;;25.95;14.78;;;;;;;0.19;88.17;99044.08;1811076;79;21166;-61
2020/12/28 10:31:58;;;;;;;30.43;14.45;;;;;;;0.07;89.43;99020.59;1742310;82;21550;-62
2020/12/28 10:34:26;;;;;;;28.62;14.43;;;;;;;-0.01;90.71;99009.16;1811352;79;21163;-63
2020/12/28 10:36:55;;;;;;;24.00;13.38;;;;;;;-0.10;91.59;99011.20;1742326;82;21293;-63
2020/12/28 10:39:22;;;;;;;28.12;15.53;;;;;;;-0.16;92.17;98994.00;1811364;79;21134;-62
2020/12/28 10:41:50;;;;;;;31.48;15.53;;;;;;;-0.19;93.27;99000.58;1742256;82;21159;-62
2020/12/28 10:44:19;;;;;;;30.82;15.43;;;;;;;-0.23;93.86;98987.75;1811182;79;21166;-63
2020/12/28 10:46:47;;;;;;;28.30;16.12;;;;;;;-0.22;94.61;98987.34;1742423;82;21142;-62
2020/12/28 10:49:15;;;;;;;25.20;14.55;;;;;;;-0.24;94.78;98995.25;1811254;79;21139;-62
2020/12/28 10:51:45;;;;;;;25.92;14.13;;;;;;;-0.26;94.89;99000.23;1811002;79;21139;-62
2020/12/28 10:54:13;;;;;;;27.70;15.93;;;;;;;-0.23;94.93;98989.02;1744821;82;21143;-63
2020/12/28 10:56:41;;;;;;;26.55;14.50;;;;;;;-0.23;94.71;99008.40;1820078;79;21545;-62
2020/12/28 10:59:11;;;;;;;31.82;15.05;;;;;;;-0.18;94.90;98961.73;1750022;82;21581;-62
2020/12/28 11:01:38;;;;;;;31.25;15.72;;;;;;;-0.18;94.70;98999.78;1819742;79;21146;-63
2020/12/28 11:04:06;;;;;;;31.93;16.65;;;;;;;-0.19;94.46;98995.51;1819834;79;21118;-62
2020/12/28 11:06:39;;;;;;;31.55;17.15;;;;;;;-0.18;94.66;98968.08;1819664;79;21154;-63
2020/12/28 11:09:07;;;;;;;28.95;14.80;;;;;;;-0.18;94.06;98949.05;1819754;79;21288;-62
2020/12/28 11:11:34;;;;;;;32.20;15.63;;;;;;;-0.17;93.99;98958.42;1819694;79;21260;-62
2020/12/28 11:14:02;;;;;;;31.95;16.95;;;;;;;-0.16;93.66;98936.06;1749974;82;21366;-63
2020/12/28 11:16:30;;;;;;;24.32;13.18;;;;;;;-0.17;93.23;98916.18;1819827;79;21150;-62
2020/12/28 11:18:57;;;;;;;29.50;14.28;;;;;;;-0.18;93.17;98933.84;1819971;79;21288;-63
2020/12/28 11:21:25;;;;;;;29.18;15.68;;;;;;;-0.18;92.96;98913.55;1750498;82;21162;-63
2020/12/28 11:24:04;;;;;;;30.57;16.60;;;;;;;-0.19;93.03;98940.58;1819877;79;21490;-63
2020/12/28 11:26:34;;;;;;;34.30;17.23;;;;;;;-0.17;92.98;98946.61;1819227;79;21131;-63
2020/12/28 11:29:05;;;;;;;33.78;16.77;;;;;;;-0.16;92.88;98903.09;1819542;79;21292;-62
2020/12/28 11:31:33;;;;;;;30.23;15.72;;;;;;;-0.18;93.02;98886.92;1819709;79;21565;-63
2020/12/28 11:34:01;;;;;;;29.60;14.98;;;;;;;-0.20;93.08;98883.06;1819649;79;21268;-63
2020/12/28 11:36:29;;;;;;;28.62;16.42;;;;;;;-0.19;93.05;98883.52;1750121;82;21127;-62
2020/12/28 11:38:56;;;;;;;31.27;16.82;;;;;;;-0.19;92.84;98877.59;1819627;79;21142;-62